Time,TemperatureF,DewpointF,PressureIn,WindDirection,WindDirectionDegrees,WindSpeedMPH,WindSpeedGustMPH,Humidity,HourlyPrecipIn,Conditions,Clouds,dailyrainin,SoftwareType,DateUTC
2013-04-26 00:09:00,38.1,33.0,30.38,WNW,286,0.0,0.0,81,0.00,,,0.02,weatherlink.com 1.10,2013-04-26 04:09:00,
2013-04-26 00:24:00,38.5,33.0,30.38,WNW,286,0.0,0.0,81,0.00,,,0.00,weatherlink.com 1.10,2013-04-26 04:24:00,
2013-04-26 00:39:00,38.5,34.0,30.38,WNW,286,0.0,0.0,85,0.00,,,0.00,weatherlink.com 1.10,2013-04-26 04:39:00,
2013-04-26 00:54:00,38.3,35.0,30.38,WNW,286,0.0,0.0,86,0.00,,,0.00,weatherlink.com 1.10,2013-04-26 04:54:00,
2013-04-26 01:09:00,38.2,35.0,30.38,WNW,286,0.0,0.0,87,0.00,,,0.00,weatherlink.com 1.10,2013-04-26 05:09:00,
2013-04-26 01:24:00,37.8,34.0,30.39,WNW,286,0.0,0.0,87,0.00,,,0.00,weatherlink.com 1.10,2013-04-26 05:24:00,
2013-04-26 01:39:00,37.3,34.0,30.39,WNW,286,0.0,0.0,86,0.00,,,0.00,weatherlink.com 1.10,2013-04-26 05:39:00,
2013-04-26 01:54:00,37.3,34.0,30.39,WNW,286,0.0,0.0,89,0.00,,,0.00,weatherlink.com 1.10,2013-04-26 05:54:00,
2013-04-26 02:09:00,37.1,34.0,30.39,WNW,286,0.0,0.0,88,0.00,,,0.00,weatherlink.com 1.10,2013-04-26 06:09:00,
2013-04-26 02:24:00,36.7,34.0,30.39,WNW,286,0.0,0.0,89,0.00,,,0.00,weatherlink.com 1.10,2013-04-26 06:24:00,
2013-04-26 02:39:00,36.6,34.0,30.39,WNW,286,0.0,0.0,89,0.00,,,0.00,weatherlink.com 1.10,2013-04-26 06:39:00,
2013-04-26 02:54:00,36.5,34.0,30.38,WNW,286,0.0,0.0,92,0.00,,,0.00,weatherlink.com 1.10,2013-04-26 06:54:00,
2013-04-26 03:09:00,36.0,33.0,30.39,WNW,286,0.0,0.0,90,0.00,,,0.00,weatherlink.com 1.10,2013-04-26 07:09:00,
2013-04-26 03:24:00,35.7,34.0,30.38,WNW,286,0.0,0.0,92,0.00,,,0.00,weatherlink.com 1.10,2013-04-26 07:24:00,
2013-04-26 03:39:00,35.7,34.0,30.39,WNW,286,0.0,0.0,93,0.00,,,0.00,weatherlink.com 1.10,2013-04-26 07:39:00,
2013-04-26 03:54:00,35.5,34.0,30.39,WNW,286,0.0,0.0,93,0.00,,,0.00,weatherlink.com 1.10,2013-04-26 07:54:00,
2013-04-26 04:09:00,35.4,34.0,30.39,WNW,286,0.0,0.0,94,0.00,,,0.00,weatherlink.com 1.10,2013-04-26 08:09:00,
2013-04-26 04:24:00,35.1,34.0,30.39,WNW,286,0.0,0.0,94,0.00,,,0.00,weatherlink.com 1.10,2013-04-26 08:24:00,
2013-04-26 04:40:00,34.9,33.0,30.39,WNW,286,0.0,1.0,94,0.00,,,0.00,weatherlink.com 1.10,2013-04-26 08:40:00,
2013-04-26 04:55:00,34.7,33.0,30.39,WNW,286,1.0,1.0,94,0.00,,,0.00,weatherlink.com 1.10,2013-04-26 08:55:00,
2013-04-26 05:10:00,34.4,33.0,30.40,WNW,286,0.0,1.0,94,0.00,,,0.00,weatherlink.com 1.10,2013-04-26 09:10:00,
2013-04-26 05:25:00,34.1,33.0,30.40,WNW,286,0.0,0.0,94,0.00,,,0.00,weatherlink.com 1.10,2013-04-26 09:25:00,
2013-04-26 05:40:00,34.3,33.0,30.40,WNW,286,0.0,0.0,95,0.00,,,0.00,weatherlink.com 1.10,2013-04-26 09:40:00,
2013-04-26 05:55:00,34.5,33.0,30.40,WNW,286,0.0,0.0,95,0.00,,,0.00,weatherlink.com 1.10,2013-04-26 09:55:00,
2013-04-26 06:10:00,34.4,33.0,30.41,WNW,286,0.0,0.0,95,0.00,,,0.00,weatherlink.com 1.10,2013-04-26 10:10:00,
2013-04-26 06:25:00,34.2,33.0,30.41,WNW,286,0.0,0.0,95,0.00,,,0.00,weatherlink.com 1.10,2013-04-26 10:25:00,
2013-04-26 06:40:00,33.8,32.0,30.42,WNW,286,0.0,0.0,94,0.00,,,0.00,weatherlink.com 1.10,2013-04-26 10:40:00,
2013-04-26 06:55:00,33.3,32.0,30.42,WNW,286,0.0,0.0,94,0.00,,,0.00,weatherlink.com 1.10,2013-04-26 10:55:00,
2013-04-26 07:10:00,33.2,32.0,30.43,WNW,285,0.0,1.0,94,0.00,,,0.00,weatherlink.com 1.10,2013-04-26 11:10:00,
2013-04-26 07:25:00,33.4,32.0,30.42,WNW,285,0.0,0.0,95,0.00,,,0.00,weatherlink.com 1.10,2013-04-26 11:25:00,
2013-04-26 07:40:00,34.1,33.0,30.42,WNW,288,0.0,1.0,95,0.00,,,0.00,weatherlink.com 1.10,2013-04-26 11:40:00,
2013-04-26 07:55:00,34.9,33.0,30.44,South,173,0.0,2.0,93,0.00,,,0.00,weatherlink.com 1.10,2013-04-26 11:55:00,
2013-04-26 08:10:00,35.8,34.0,30.44,South,174,0.0,3.0,93,0.00,,,0.00,weatherlink.com 1.10,2013-04-26 12:10:00,
2013-04-26 08:25:00,36.8,35.0,30.45,SSE,166,0.0,3.0,91,0.00,,,0.00,weatherlink.com 1.10,2013-04-26 12:25:00,
2013-04-26 08:40:00,38.6,34.0,30.45,SSE,167,2.0,6.0,84,0.00,,,0.00,weatherlink.com 1.10,2013-04-26 12:40:00,
2013-04-26 08:55:00,39.9,35.0,30.45,ESE,122,2.0,4.0,81,0.00,,,0.00,weatherlink.com 1.10,2013-04-26 12:55:00,
2013-04-26 09:10:00,41.4,35.0,30.45,SSW,198,1.0,4.0,79,0.00,,,0.00,weatherlink.com 1.10,2013-04-26 13:10:00,
2013-04-26 09:25:00,42.9,36.0,30.45,SSW,198,2.0,6.0,75,0.00,,,0.00,weatherlink.com 1.10,2013-04-26 13:25:00,
2013-04-26 09:40:00,44.5,35.0,30.44,SSE,168,2.0,5.0,69,0.00,,,0.00,weatherlink.com 1.10,2013-04-26 13:40:00,
2013-04-26 09:55:00,46.1,35.0,30.44,SSE,166,2.0,7.0,65,0.00,,,0.00,weatherlink.com 1.10,2013-04-26 13:55:00,
2013-04-26 10:10:00,47.5,35.0,30.45,SW,221,2.0,7.0,63,0.00,,,0.00,weatherlink.com 1.10,2013-04-26 14:10:00,
2013-04-26 10:25:00,49.0,35.0,30.44,South,169,6.0,8.0,58,0.00,,,0.00,weatherlink.com 1.10,2013-04-26 14:25:00,
2013-04-26 10:41:00,50.1,36.0,30.44,WSW,238,3.0,6.0,58,0.00,,,0.00,weatherlink.com 1.10,2013-04-26 14:41:00,
2013-04-26 10:56:00,50.9,35.0,30.45,SW,236,2.0,9.0,54,0.00,,,0.00,weatherlink.com 1.10,2013-04-26 14:56:00,
2013-04-26 11:11:00,51.3,34.0,30.45,SW,229,1.0,8.0,51,0.00,,,0.00,weatherlink.com 1.10,2013-04-26 15:11:00,
2013-04-26 11:26:00,52.6,37.0,30.45,SW,232,2.0,7.0,55,0.00,,,0.00,weatherlink.com 1.10,2013-04-26 15:26:00,
2013-04-26 11:41:00,53.6,35.0,30.45,ESE,121,3.0,7.0,49,0.00,,,0.00,weatherlink.com 1.10,2013-04-26 15:41:00,
2013-04-26 11:56:00,53.9,35.0,30.45,East,97,2.0,7.0,49,0.00,,,0.00,weatherlink.com 1.10,2013-04-26 15:56:00,
2013-04-26 12:11:00,54.3,36.0,30.45,WSW,243,2.0,7.0,50,0.00,,,0.00,weatherlink.com 1.10,2013-04-26 16:11:00,
2013-04-26 12:26:00,55.3,36.0,30.44,SE,139,4.0,6.0,49,0.00,,,0.00,weatherlink.com 1.10,2013-04-26 16:26:00,
2013-04-26 12:41:00,55.4,37.0,30.45,South,184,0.0,7.0,51,0.00,,,0.00,weatherlink.com 1.10,2013-04-26 16:41:00,
2013-04-26 12:56:00,56.4,36.0,30.44,SSE,152,2.0,11.0,47,0.00,,,0.00,weatherlink.com 1.10,2013-04-26 16:56:00,
2013-04-26 13:11:00,56.5,36.0,30.44,SW,215,4.0,10.0,46,0.00,,,0.00,weatherlink.com 1.10,2013-04-26 17:11:00,
2013-04-26 13:26:00,56.8,37.0,30.44,South,191,3.0,8.0,47,0.00,,,0.00,weatherlink.com 1.10,2013-04-26 17:26:00,
2013-04-26 13:41:00,57.7,37.0,30.43,SSW,198,3.0,10.0,46,0.00,,,0.00,weatherlink.com 1.10,2013-04-26 17:41:00,
2013-04-26 13:56:00,58.3,38.0,30.43,SSW,209,4.0,9.0,48,0.00,,,0.00,weatherlink.com 1.10,2013-04-26 17:56:00,
2013-04-26 14:11:00,58.9,37.0,30.42,SSW,197,1.0,9.0,45,0.00,,,0.00,weatherlink.com 1.10,2013-04-26 18:11:00,
2013-04-26 14:26:00,59.5,39.0,30.41,SW,214,0.0,9.0,46,0.00,,,0.00,weatherlink.com 1.10,2013-04-26 18:26:00,
2013-04-26 14:41:00,59.9,38.0,30.41,SW,226,5.0,7.0,44,0.00,,,0.00,weatherlink.com 1.10,2013-04-26 18:41:00,
2013-04-26 14:56:00,60.6,40.0,30.40,South,190,3.0,8.0,47,0.00,,,0.00,weatherlink.com 1.10,2013-04-26 18:56:00,
2013-04-26 15:11:00,60.5,40.0,30.40,SW,215,6.0,7.0,48,0.00,,,0.00,weatherlink.com 1.10,2013-04-26 19:11:00,
2013-04-26 15:26:00,59.6,37.0,30.39,ESE,109,2.0,10.0,44,0.00,,,0.00,weatherlink.com 1.10,2013-04-26 19:26:00,
2013-04-26 15:41:00,59.7,40.0,30.39,SSW,200,2.0,7.0,48,0.00,,,0.00,weatherlink.com 1.10,2013-04-26 19:41:00,
2013-04-26 15:56:00,59.4,40.0,30.38,SW,227,0.0,5.0,49,0.00,,,0.00,weatherlink.com 1.10,2013-04-26 19:56:00,
2013-04-26 16:11:00,60.0,39.0,30.38,SW,231,3.0,8.0,46,0.00,,,0.00,weatherlink.com 1.10,2013-04-26 20:11:00,
2013-04-26 16:26:00,60.0,38.0,30.37,SW,235,4.0,9.0,44,0.00,,,0.00,weatherlink.com 1.10,2013-04-26 20:26:00,
2013-04-26 16:41:00,60.3,39.0,30.36,SSW,212,1.0,7.0,46,0.00,,,0.00,weatherlink.com 1.10,2013-04-26 20:41:00,
2013-04-26 16:56:00,60.9,40.0,30.36,SW,225,2.0,10.0,47,0.00,,,0.00,weatherlink.com 1.10,2013-04-26 20:56:00,
2013-04-26 17:11:00,61.7,40.0,30.36,WSW,240,3.0,5.0,45,0.00,,,0.00,weatherlink.com 1.10,2013-04-26 21:11:00,
2013-04-26 17:26:00,62.1,40.0,30.36,SSW,209,2.0,6.0,45,0.00,,,0.00,weatherlink.com 1.10,2013-04-26 21:26:00,
2013-04-26 17:41:00,62.1,39.0,30.35,SSW,211,3.0,6.0,43,0.00,,,0.00,weatherlink.com 1.10,2013-04-26 21:41:00,
2013-04-26 17:56:00,61.6,39.0,30.35,SE,127,3.0,9.0,44,0.00,,,0.00,weatherlink.com 1.10,2013-04-26 21:56:00,
2013-04-26 18:11:00,61.3,40.0,30.35,SE,126,5.0,7.0,45,0.00,,,0.00,weatherlink.com 1.10,2013-04-26 22:11:00,
2013-04-26 18:26:00,61.0,40.0,30.35,WSW,244,1.0,7.0,46,0.00,,,0.00,weatherlink.com 1.10,2013-04-26 22:26:00,
2013-04-26 18:41:00,60.2,40.0,30.35,SW,215,2.0,8.0,47,0.00,,,0.00,weatherlink.com 1.10,2013-04-26 22:41:00,
2013-04-26 18:56:00,60.2,40.0,30.34,SSW,192,3.0,5.0,48,0.00,,,0.00,weatherlink.com 1.10,2013-04-26 22:56:00,
2013-04-26 19:11:00,60.2,40.0,30.35,SSW,200,2.0,4.0,47,0.00,,,0.00,weatherlink.com 1.10,2013-04-26 23:11:00,
2013-04-26 19:26:00,59.5,40.0,30.34,SW,219,2.0,5.0,49,0.00,,,0.00,weatherlink.com 1.10,2013-04-26 23:26:00,
2013-04-26 19:41:00,58.5,39.0,30.34,South,190,2.0,7.0,49,0.00,,,0.00,weatherlink.com 1.10,2013-04-26 23:41:00,
2013-04-26 20:11:00,57.5,40.0,30.34,SW,234,1.0,3.0,53,0.00,,,0.00,weatherlink.com 1.10,2013-04-27 00:11:00,
2013-04-26 20:26:00,56.6,39.0,30.34,SW,228,0.0,2.0,53,0.00,,,0.00,weatherlink.com 1.10,2013-04-27 00:26:00,
2013-04-26 20:41:00,55.4,41.0,30.34,SW,228,0.0,1.0,58,0.00,,,0.00,weatherlink.com 1.10,2013-04-27 00:41:00,
2013-04-26 20:57:00,54.2,39.0,30.35,SW,228,0.0,1.0,58,0.00,,,0.00,weatherlink.com 1.10,2013-04-27 00:57:00,
2013-04-26 21:12:00,53.5,40.0,30.34,SW,228,0.0,1.0,61,0.00,,,0.00,weatherlink.com 1.10,2013-04-27 01:12:00,
2013-04-26 21:27:00,52.8,39.0,30.35,SW,228,0.0,1.0,61,0.00,,,0.00,weatherlink.com 1.10,2013-04-27 01:27:00,
2013-04-26 21:42:00,52.3,39.0,30.36,SW,228,0.0,0.0,62,0.00,,,0.00,weatherlink.com 1.10,2013-04-27 01:42:00,
2013-04-26 21:57:00,51.5,39.0,30.36,SW,228,0.0,0.0,63,0.00,,,0.00,weatherlink.com 1.10,2013-04-27 01:57:00,
2013-04-26 22:12:00,50.9,39.0,30.36,SW,228,0.0,0.0,64,0.00,,,0.00,weatherlink.com 1.10,2013-04-27 02:12:00,
2013-04-26 22:27:00,50.1,39.0,30.36,SW,228,0.0,1.0,66,0.00,,,0.00,weatherlink.com 1.10,2013-04-27 02:27:00,
2013-04-26 22:42:00,49.7,38.0,30.35,SW,228,0.0,0.0,65,0.00,,,0.00,weatherlink.com 1.10,2013-04-27 02:42:00,
2013-04-26 22:57:00,49.1,38.0,30.35,SW,228,0.0,0.0,65,0.00,,,0.00,weatherlink.com 1.10,2013-04-27 02:57:00,
2013-04-26 23:12:00,48.6,38.0,30.35,SW,228,0.0,0.0,66,0.00,,,0.00,weatherlink.com 1.10,2013-04-27 03:12:00,
2013-04-26 23:27:00,48.1,38.0,30.35,SW,228,0.0,1.0,67,0.00,,,0.00,weatherlink.com 1.10,2013-04-27 03:27:00,
2013-04-26 23:42:00,47.7,38.0,30.35,SW,228,0.0,1.0,68,0.00,,,0.00,weatherlink.com 1.10,2013-04-27 03:42:00,
2013-04-26 23:57:00,47.3,38.0,30.35,SW,228,0.0,0.0,69,0.00,,,0.00,weatherlink.com 1.10,2013-04-27 03:57:00,